createdAt,value
2023-05-21T00:00:39.485Z,530.0000
2023-05-21T00:01:41.703Z,532.0000
2023-05-21T00:02:44.043Z,532.0000
2023-05-21T00:03:46.340Z,529.0000
2023-05-21T00:04:48.342Z,529.0000
2023-05-21T00:05:50.587Z,527.0000
2023-05-21T00:06:52.747Z,524.0000
2023-05-21T00:07:55.067Z,524.0000
2023-05-21T00:08:57.090Z,525.0000
2023-05-21T00:09:59.275Z,523.0000
2023-05-21T00:11:01.486Z,526.0000
2023-05-21T00:12:03.720Z,526.0000
2023-05-21T00:13:05.974Z,527.0000
2023-05-21T00:14:08.152Z,525.0000
2023-05-21T00:15:10.373Z,524.0000
2023-05-21T00:16:12.660Z,525.0000
2023-05-21T00:17:14.822Z,527.0000
2023-05-21T00:18:16.997Z,526.0000
2023-05-21T00:19:19.229Z,529.0000
2023-05-21T00:20:21.320Z,528.0000
2023-05-21T00:21:23.547Z,532.0000
2023-05-21T00:22:23.569Z,533.0000
2023-05-21T00:23:25.755Z,533.0000
2023-05-21T00:24:27.950Z,534.0000
2023-05-21T00:25:30.149Z,536.0000
2023-05-21T00:26:32.341Z,535.0000
2023-05-21T00:27:34.528Z,534.0000
2023-05-21T00:28:36.831Z,534.0000
2023-05-21T00:29:38.864Z,534.0000
2023-05-21T00:30:41.051Z,533.0000
2023-05-21T00:31:43.288Z,530.0000
2023-05-21T00:32:45.455Z,529.0000
2023-05-21T00:33:47.615Z,529.0000
2023-05-21T00:34:49.752Z,530.0000
2023-05-21T00:35:51.933Z,532.0000
2023-05-21T00:36:54.172Z,530.0000
2023-05-21T00:37:56.286Z,531.0000
2023-05-21T00:38:58.539Z,531.0000
2023-05-21T00:40:00.592Z,528.0000
2023-05-21T00:41:02.790Z,528.0000
2023-05-21T00:42:04.896Z,528.0000
2023-05-21T00:43:07.069Z,527.0000
2023-05-21T00:44:09.290Z,525.0000
2023-05-21T00:45:11.422Z,527.0000
2023-05-21T00:46:13.622Z,529.0000
2023-05-21T00:47:15.753Z,529.0000
2023-05-21T00:48:17.950Z,527.0000
2023-05-21T00:49:20.177Z,528.0000
2023-05-21T00:50:20.205Z,530.0000
2023-05-21T00:51:22.477Z,528.0000
2023-05-21T00:52:24.726Z,527.0000
2023-05-21T00:53:26.947Z,527.0000
2023-05-21T00:54:29.213Z,526.0000
2023-05-21T00:55:31.404Z,526.0000
2023-05-21T00:56:33.584Z,526.0000
2023-05-21T00:57:35.789Z,526.0000
2023-05-21T00:58:37.974Z,528.0000
2023-05-21T00:59:40.309Z,529.0000
2023-05-21T01:00:42.385Z,528.0000
2023-05-21T01:01:44.626Z,530.0000
2023-05-21T01:02:46.960Z,530.0000
2023-05-21T01:03:49.115Z,529.0000
2023-05-21T01:04:49.118Z,531.0000
2023-05-21T01:05:51.194Z,530.0000
2023-05-21T01:06:53.301Z,530.0000
2023-05-21T01:07:55.500Z,528.0000
2023-05-21T01:08:57.661Z,528.0000
2023-05-21T01:09:59.899Z,529.0000
2023-05-21T01:11:02.028Z,529.0000
2023-05-21T01:12:04.200Z,530.0000
2023-05-21T01:13:06.379Z,530.0000
2023-05-21T01:14:08.566Z,528.0000
2023-05-21T01:15:10.765Z,528.0000
2023-05-21T01:16:12.886Z,528.0000
2023-05-21T01:17:15.070Z,526.0000
2023-05-21T01:18:17.300Z,524.0000
2023-05-21T01:19:19.478Z,526.0000
2023-05-21T01:20:21.700Z,526.0000
2023-05-21T01:21:23.856Z,529.0000
2023-05-21T01:22:26.062Z,528.0000
2023-05-21T01:23:28.300Z,527.0000
2023-05-21T01:24:30.488Z,528.0000
2023-05-21T01:26:28.728Z,513.0000
2023-05-21T01:27:30.696Z,517.0000
2023-05-21T01:28:32.878Z,517.0000
2023-05-21T01:29:35.056Z,517.0000
2023-05-21T01:30:37.271Z,513.0000
2023-05-21T01:31:39.446Z,513.0000
2023-05-21T01:32:41.794Z,515.0000
2023-05-21T01:33:43.834Z,515.0000
2023-05-21T01:34:45.945Z,515.0000
2023-05-21T01:35:48.091Z,514.0000
2023-05-21T01:36:50.264Z,514.0000
2023-05-21T01:37:52.416Z,513.0000
2023-05-21T01:38:54.610Z,510.0000
2023-05-21T01:39:56.749Z,511.0000
2023-05-21T01:40:58.929Z,511.0000
2023-05-21T01:41:59.068Z,514.0000
2023-05-21T01:43:01.233Z,514.0000
2023-05-21T01:44:03.450Z,511.0000
2023-05-21T01:45:05.661Z,512.0000
2023-05-21T01:46:07.874Z,515.0000
2023-05-21T01:47:10.042Z,513.0000
2023-05-21T01:48:12.175Z,513.0000
2023-05-21T01:49:14.335Z,513.0000
2023-05-21T01:50:16.533Z,514.0000
2023-05-21T01:51:18.707Z,514.0000
2023-05-21T01:52:20.898Z,517.0000
2023-05-21T01:53:23.080Z,518.0000
2023-05-21T01:54:25.288Z,521.0000
2023-05-21T01:55:27.438Z,521.0000
2023-05-21T01:56:29.614Z,521.0000
2023-05-21T01:57:31.794Z,521.0000
2023-05-21T01:58:33.863Z,522.0000
2023-05-21T01:59:36.044Z,522.0000
2023-05-21T02:00:38.177Z,522.0000
2023-05-21T02:01:38.218Z,522.0000
2023-05-21T02:02:40.508Z,521.0000
2023-05-21T02:03:42.630Z,522.0000
2023-05-21T02:04:44.744Z,524.0000
2023-05-21T02:05:46.907Z,524.0000
2023-05-21T02:06:49.089Z,526.0000
2023-05-21T02:07:51.282Z,523.0000
2023-05-21T02:08:53.424Z,523.0000
2023-05-21T02:09:55.618Z,521.0000
2023-05-21T02:10:57.780Z,522.0000
2023-05-21T02:12:00.048Z,522.0000
2023-05-21T02:13:02.144Z,521.0000
2023-05-21T02:14:04.247Z,520.0000
2023-05-21T02:15:06.438Z,518.0000
2023-05-21T02:16:08.602Z,516.0000
2023-05-21T02:17:10.745Z,517.0000
2023-05-21T02:18:12.949Z,516.0000
2023-05-21T02:19:15.106Z,514.0000
2023-05-21T02:20:17.265Z,514.0000
2023-05-21T02:21:19.398Z,512.0000
2023-05-21T02:22:21.521Z,512.0000
2023-05-21T02:23:23.654Z,513.0000
2023-05-21T02:24:25.673Z,513.0000
2023-05-21T02:25:27.805Z,511.0000
2023-05-21T02:26:29.869Z,512.0000
2023-05-21T02:27:31.969Z,511.0000
2023-05-21T02:28:31.956Z,514.0000
2023-05-21T02:29:34.019Z,516.0000
2023-05-21T02:30:36.141Z,517.0000
2023-05-21T02:31:38.285Z,514.0000
2023-05-21T02:32:40.482Z,513.0000
2023-05-21T02:34:53.495Z,519.0000
2023-05-21T02:35:55.581Z,515.0000
2023-05-21T02:36:57.739Z,513.0000
2023-05-21T02:37:59.907Z,516.0000
2023-05-21T02:39:02.109Z,519.0000
2023-05-21T02:40:04.404Z,519.0000
2023-05-21T02:41:06.553Z,517.0000
2023-05-21T02:42:08.736Z,514.0000
2023-05-21T02:43:10.968Z,514.0000
2023-05-21T02:44:13.180Z,515.0000
2023-05-21T02:45:15.438Z,512.0000
2023-05-21T02:46:17.633Z,512.0000
2023-05-21T02:47:19.804Z,512.0000
2023-05-21T02:48:19.879Z,510.0000
2023-05-21T02:49:22.119Z,510.0000
2023-05-21T02:50:24.362Z,511.0000
2023-05-21T02:51:26.548Z,512.0000
2023-05-21T02:52:28.738Z,513.0000
2023-05-21T02:53:30.962Z,513.0000
2023-05-21T02:54:33.178Z,513.0000
2023-05-21T02:55:35.837Z,513.0000
2023-05-21T02:56:37.641Z,514.0000
2023-05-21T02:57:39.775Z,514.0000
2023-05-21T02:58:41.951Z,515.0000
2023-05-21T02:59:42.011Z,514.0000
2023-05-21T03:00:44.239Z,518.0000
2023-05-21T03:01:46.507Z,517.0000
2023-05-21T03:02:48.718Z,517.0000
2023-05-21T03:03:50.832Z,516.0000
2023-05-21T03:04:52.987Z,516.0000
2023-05-21T03:05:55.215Z,516.0000
2023-05-21T03:06:57.351Z,518.0000
2023-05-21T03:07:59.561Z,519.0000
2023-05-21T03:09:00.643Z,518.0000
2023-05-21T03:11:04.011Z,518.0000
2023-05-21T03:12:06.175Z,514.0000
2023-05-21T03:13:09.964Z,515.0000
2023-05-21T03:14:10.419Z,513.0000
2023-05-21T03:15:12.593Z,512.0000
2023-05-21T03:16:16.978Z,512.0000
2023-05-21T03:17:14.697Z,513.0000
2023-05-21T03:18:16.863Z,512.0000
2023-05-21T03:19:19.053Z,514.0000
2023-05-21T03:20:21.165Z,516.0000
2023-05-21T03:21:23.377Z,517.0000
2023-05-21T03:22:25.516Z,518.0000
2023-05-21T03:23:29.760Z,519.0000
2023-05-21T03:24:29.781Z,515.0000
2023-05-21T03:25:31.911Z,515.0000
2023-05-21T03:26:34.086Z,514.0000
2023-05-21T03:27:36.263Z,512.0000
2023-05-21T03:28:38.410Z,513.0000
2023-05-21T03:29:40.555Z,516.0000
2023-05-21T03:30:44.727Z,517.0000
2023-05-21T03:31:46.868Z,517.0000
2023-05-21T03:32:48.975Z,516.0000
2023-05-21T03:33:48.971Z,517.0000
2023-05-21T03:34:51.135Z,513.0000
2023-05-21T03:35:53.279Z,515.0000
2023-05-21T03:36:55.424Z,514.0000
2023-05-21T03:37:57.641Z,513.0000
2023-05-21T03:38:59.868Z,514.0000
2023-05-21T03:40:02.097Z,512.0000
2023-05-21T03:41:04.313Z,514.0000
2023-05-21T03:42:06.515Z,519.0000
2023-05-21T03:43:08.732Z,518.0000
2023-05-21T03:44:08.798Z,517.0000
2023-05-21T03:45:10.979Z,517.0000
2023-05-21T03:46:13.197Z,519.0000
2023-05-21T03:47:15.381Z,518.0000
2023-05-21T03:48:17.540Z,519.0000
2023-05-21T03:49:19.701Z,519.0000
2023-05-21T03:50:21.935Z,521.0000
2023-05-21T03:51:24.074Z,520.0000
2023-05-21T03:52:26.255Z,519.0000
2023-05-21T03:53:28.392Z,517.0000
2023-05-21T03:54:30.616Z,516.0000
2023-05-21T03:55:32.833Z,515.0000
2023-05-21T03:56:35.046Z,513.0000
2023-05-21T03:57:37.277Z,515.0000
2023-05-21T03:58:39.449Z,516.0000
2023-05-21T03:59:41.589Z,515.0000
2023-05-21T04:00:43.777Z,514.0000
2023-05-21T04:01:45.950Z,512.0000
2023-05-21T04:02:48.277Z,512.0000
2023-05-21T04:03:50.564Z,510.0000
2023-05-21T04:04:52.611Z,512.0000
2023-05-21T04:05:54.711Z,514.0000
2023-05-21T04:06:54.735Z,513.0000
2023-05-21T04:07:56.906Z,513.0000
2023-05-21T04:08:59.096Z,514.0000
2023-05-21T04:10:01.273Z,513.0000
2023-05-21T04:11:03.475Z,511.0000
2023-05-21T04:12:05.648Z,507.0000
2023-05-21T04:13:07.863Z,506.0000
2023-05-21T04:15:23.224Z,510.0000
2023-05-21T04:16:25.239Z,507.0000
2023-05-21T04:17:27.447Z,505.0000
2023-05-21T04:18:29.613Z,508.0000
2023-05-21T04:19:31.859Z,507.0000
2023-05-21T04:20:33.900Z,509.0000
2023-05-21T04:21:36.085Z,508.0000
2023-05-21T04:22:38.272Z,510.0000
2023-05-21T04:23:40.512Z,509.0000
2023-05-21T04:24:42.639Z,511.0000
2023-05-21T04:25:44.756Z,514.0000
2023-05-21T04:26:46.909Z,513.0000
2023-05-21T04:27:49.076Z,515.0000
2023-05-21T04:28:51.285Z,514.0000
2023-05-21T04:29:53.359Z,514.0000
2023-05-21T04:30:55.580Z,513.0000
2023-05-21T04:31:57.688Z,512.0000
2023-05-21T04:32:59.886Z,515.0000
2023-05-21T04:34:02.037Z,515.0000
2023-05-21T04:35:04.101Z,516.0000
2023-05-21T04:36:06.252Z,517.0000
2023-05-21T04:37:08.408Z,518.0000
2023-05-21T04:38:10.569Z,519.0000
2023-05-21T04:39:12.805Z,520.0000
2023-05-21T04:40:14.973Z,521.0000
2023-05-21T04:41:17.101Z,516.0000
2023-05-21T04:42:19.308Z,518.0000
2023-05-21T04:43:21.508Z,517.0000
2023-05-21T04:44:21.578Z,519.0000
2023-05-21T04:45:23.738Z,516.0000
2023-05-21T04:46:26.017Z,517.0000
2023-05-21T04:47:28.178Z,514.0000
2023-05-21T04:48:30.366Z,517.0000
2023-05-21T04:49:32.576Z,515.0000
2023-05-21T04:50:34.778Z,520.0000
2023-05-21T04:51:36.948Z,521.0000
2023-05-21T04:52:39.135Z,524.0000
2023-05-21T04:53:41.314Z,525.0000
2023-05-21T04:54:43.621Z,523.0000
2023-05-21T04:55:45.689Z,522.0000
2023-05-21T04:56:47.893Z,519.0000
2023-05-21T04:57:50.097Z,522.0000
2023-05-21T04:58:52.322Z,521.0000
2023-05-21T04:59:54.565Z,522.0000
2023-05-21T05:00:56.854Z,523.0000
2023-05-21T05:01:56.875Z,525.0000
2023-05-21T05:02:59.147Z,523.0000
2023-05-21T05:04:01.356Z,523.0000
2023-05-21T05:05:03.560Z,523.0000
2023-05-21T05:06:05.768Z,521.0000
2023-05-21T05:07:07.973Z,522.0000
2023-05-21T05:08:10.190Z,521.0000
2023-05-21T05:09:12.431Z,519.0000
2023-05-21T05:10:14.686Z,517.0000
2023-05-21T05:11:16.896Z,519.0000
2023-05-21T05:12:19.126Z,521.0000
2023-05-21T05:13:21.368Z,522.0000
2023-05-21T05:14:21.408Z,523.0000
2023-05-21T05:15:23.588Z,523.0000
2023-05-21T05:16:25.899Z,522.0000
2023-05-21T05:17:28.104Z,522.0000
2023-05-21T05:18:30.177Z,519.0000
2023-05-21T05:19:32.409Z,523.0000
2023-05-21T05:20:34.540Z,526.0000
2023-05-21T05:21:36.700Z,525.0000
2023-05-21T05:22:38.882Z,525.0000
2023-05-21T05:23:41.066Z,524.0000
2023-05-21T05:24:43.274Z,526.0000
2023-05-21T05:25:45.462Z,525.0000
2023-05-21T05:26:47.613Z,525.0000
2023-05-21T05:27:49.810Z,526.0000
2023-05-21T05:28:51.992Z,526.0000
2023-05-21T05:29:54.140Z,527.0000
2023-05-21T05:30:56.437Z,527.0000
2023-05-21T05:31:58.515Z,528.0000
2023-05-21T05:33:00.789Z,526.0000
2023-05-21T05:34:02.863Z,527.0000
2023-05-21T05:35:05.019Z,525.0000
2023-05-21T05:36:05.051Z,523.0000
2023-05-21T05:37:07.162Z,523.0000
2023-05-21T05:38:09.332Z,522.0000
2023-05-21T05:39:11.522Z,519.0000
2023-05-21T05:40:13.774Z,520.0000
2023-05-21T05:41:16.022Z,519.0000
2023-05-21T05:42:18.212Z,520.0000
2023-05-21T05:43:20.422Z,521.0000
2023-05-21T05:45:33.543Z,511.0000
2023-05-21T05:46:35.758Z,515.0000
2023-05-21T05:47:37.691Z,517.0000
2023-05-21T05:48:39.765Z,523.0000
2023-05-21T05:49:41.864Z,525.0000
2023-05-21T05:50:43.979Z,525.0000
2023-05-21T05:51:46.104Z,524.0000
2023-05-21T05:52:48.241Z,521.0000
2023-05-21T05:53:50.429Z,520.0000
2023-05-21T05:54:52.595Z,517.0000
2023-05-21T05:55:54.726Z,517.0000
2023-05-21T05:56:56.910Z,517.0000
2023-05-21T05:57:59.050Z,517.0000
2023-05-21T05:59:01.205Z,519.0000
2023-05-21T06:00:03.409Z,521.0000
2023-05-21T06:01:05.566Z,522.0000
2023-05-21T06:02:07.888Z,524.0000
2023-05-21T06:03:09.951Z,526.0000
2023-05-21T06:04:12.049Z,528.0000
2023-05-21T06:05:14.266Z,529.0000
2023-05-21T06:06:14.381Z,529.0000
2023-05-21T06:07:16.599Z,527.0000
2023-05-21T06:08:18.731Z,524.0000
2023-05-21T06:09:20.939Z,526.0000
2023-05-21T06:10:23.147Z,525.0000
2023-05-21T06:11:25.354Z,527.0000
2023-05-21T06:12:27.541Z,527.0000
2023-05-21T06:13:29.694Z,528.0000
2023-05-21T06:14:31.899Z,529.0000
2023-05-21T06:15:34.143Z,530.0000
2023-05-21T06:16:36.350Z,528.0000
2023-05-21T06:17:38.525Z,529.0000
2023-05-21T06:18:40.672Z,528.0000
2023-05-21T06:19:42.915Z,528.0000
2023-05-21T06:20:45.089Z,527.0000
2023-05-21T06:21:47.249Z,526.0000
2023-05-21T06:22:49.403Z,525.0000
2023-05-21T06:23:51.609Z,524.0000
2023-05-21T06:24:51.642Z,528.0000
2023-05-21T06:25:53.817Z,526.0000
2023-05-21T06:26:55.949Z,524.0000
2023-05-21T06:27:58.198Z,525.0000
2023-05-21T06:29:00.348Z,526.0000
2023-05-21T06:30:02.530Z,528.0000
2023-05-21T06:31:04.703Z,526.0000
2023-05-21T06:32:06.757Z,528.0000
2023-05-21T06:33:08.937Z,529.0000
2023-05-21T06:34:10.909Z,532.0000
2023-05-21T06:35:13.081Z,534.0000
2023-05-21T06:36:15.198Z,536.0000
2023-05-21T06:37:17.277Z,536.0000
2023-05-21T06:38:19.348Z,537.0000
2023-05-21T06:39:21.318Z,538.0000
2023-05-21T06:40:23.392Z,540.0000
2023-05-21T06:41:25.566Z,543.0000
2023-05-21T06:42:27.754Z,543.0000
2023-05-21T06:43:29.917Z,546.0000
2023-05-21T06:44:32.132Z,548.0000
2023-05-21T06:45:34.358Z,546.0000
2023-05-21T06:46:36.498Z,551.0000
2023-05-21T06:47:38.628Z,550.0000
2023-05-21T06:48:40.823Z,554.0000
2023-05-21T06:49:42.978Z,554.0000
2023-05-21T06:50:45.225Z,557.0000
2023-05-21T06:51:47.355Z,558.0000
2023-05-21T06:52:47.419Z,565.0000
2023-05-21T06:53:49.624Z,573.0000
2023-05-21T06:54:51.805Z,579.0000
2023-05-21T06:55:54.079Z,589.0000
2023-05-21T06:56:56.143Z,587.0000
2023-05-21T06:57:58.312Z,588.0000
2023-05-21T06:59:00.473Z,588.0000
2023-05-21T07:00:02.561Z,591.0000
2023-05-21T07:01:04.697Z,594.0000
2023-05-21T07:02:06.824Z,594.0000
2023-05-21T07:03:09.064Z,598.0000
2023-05-21T07:04:11.150Z,598.0000
2023-05-21T07:05:13.258Z,604.0000
2023-05-21T07:06:15.422Z,608.0000
2023-05-21T07:07:17.539Z,622.0000
2023-05-21T07:08:19.699Z,612.0000
2023-05-21T07:09:21.916Z,613.0000
2023-05-21T07:10:24.082Z,609.0000
2023-05-21T07:11:26.268Z,610.0000
2023-05-21T07:12:28.443Z,608.0000
2023-05-21T07:13:30.628Z,611.0000
2023-05-21T07:14:32.859Z,616.0000
2023-05-21T07:15:35.270Z,619.0000
2023-05-21T07:16:37.287Z,618.0000
2023-05-21T07:17:39.450Z,621.0000
2023-05-21T07:18:41.584Z,623.0000
2023-05-21T07:19:43.736Z,628.0000
2023-05-21T07:20:45.889Z,626.0000
2023-05-21T07:21:48.144Z,626.0000
2023-05-21T07:22:48.173Z,627.0000
2023-05-21T07:23:50.356Z,640.0000
2023-05-21T07:24:52.528Z,644.0000
2023-05-21T07:25:54.688Z,645.0000
2023-05-21T07:26:56.869Z,644.0000
2023-05-21T07:27:59.045Z,638.0000
2023-05-21T07:29:01.230Z,637.0000
2023-05-21T07:30:03.395Z,641.0000
2023-05-21T07:31:05.546Z,642.0000
2023-05-21T07:32:07.628Z,646.0000
2023-05-21T07:33:09.763Z,654.0000
2023-05-21T07:34:11.866Z,653.0000
2023-05-21T07:35:14.026Z,656.0000
2023-05-21T07:36:16.186Z,657.0000
2023-05-21T07:37:18.282Z,657.0000
2023-05-21T07:38:20.334Z,658.0000
2023-05-21T07:39:22.483Z,659.0000
2023-05-21T07:40:59.140Z,645.0000
2023-05-21T07:42:01.188Z,650.0000
2023-05-21T07:43:01.236Z,646.0000
2023-05-21T07:44:03.385Z,650.0000
2023-05-21T07:45:05.540Z,649.0000
2023-05-21T07:46:07.741Z,651.0000
2023-05-21T07:47:09.819Z,659.0000
2023-05-21T07:48:11.941Z,664.0000
2023-05-21T07:49:14.081Z,665.0000
2023-05-21T07:50:16.224Z,668.0000
2023-05-21T07:51:18.452Z,670.0000
2023-05-21T07:52:20.692Z,673.0000
2023-05-21T07:53:22.733Z,677.0000
2023-05-21T07:54:24.923Z,684.0000
2023-05-21T07:55:27.079Z,690.0000
2023-05-21T07:56:29.222Z,672.0000
2023-05-21T07:57:31.321Z,555.0000
2023-05-21T07:58:33.439Z,534.0000
2023-05-21T07:59:35.587Z,519.0000
2023-05-21T08:00:37.740Z,503.0000
2023-05-21T08:01:39.958Z,493.0000
2023-05-21T08:02:42.331Z,488.0000
2023-05-21T08:03:44.503Z,490.0000
2023-05-21T08:04:46.516Z,502.0000
2023-05-21T08:05:48.605Z,516.0000
2023-05-21T08:06:50.833Z,516.0000
2023-05-21T08:07:51.034Z,504.0000
2023-05-21T08:08:53.157Z,499.0000
2023-05-21T08:09:55.401Z,496.0000
2023-05-21T08:10:57.627Z,496.0000
2023-05-21T08:12:00.377Z,495.0000
2023-05-21T08:13:01.920Z,496.0000
2023-05-21T08:14:04.034Z,497.0000
2023-05-21T08:15:06.106Z,495.0000
2023-05-21T08:16:08.289Z,482.0000
2023-05-21T08:17:10.357Z,473.0000
2023-05-21T08:18:12.590Z,465.0000
2023-05-21T08:19:14.687Z,463.0000
2023-05-21T08:20:16.816Z,469.0000
2023-05-21T08:21:19.049Z,467.0000
2023-05-21T08:22:21.181Z,458.0000
2023-05-21T08:23:21.352Z,449.0000
2023-05-21T08:24:23.428Z,448.0000
2023-05-21T08:25:25.633Z,446.0000
2023-05-21T08:26:27.824Z,443.0000
2023-05-21T08:27:30.111Z,441.0000
2023-05-21T08:28:32.241Z,436.0000
2023-05-21T08:29:34.459Z,435.0000
2023-05-21T08:30:36.672Z,434.0000
2023-05-21T08:31:38.891Z,433.0000
2023-05-21T08:32:41.132Z,434.0000
2023-05-21T08:33:43.292Z,436.0000
2023-05-21T08:34:45.518Z,435.0000
2023-05-21T08:35:47.712Z,435.0000
2023-05-21T08:36:49.928Z,436.0000
2023-05-21T08:37:52.174Z,438.0000
2023-05-21T08:38:54.401Z,433.0000
2023-05-21T08:39:54.402Z,433.0000
2023-05-21T08:40:56.602Z,431.0000
2023-05-21T08:41:58.801Z,431.0000
2023-05-21T08:43:01.025Z,430.0000
2023-05-21T08:44:03.191Z,430.0000
2023-05-21T08:45:05.404Z,429.0000
2023-05-21T08:46:07.659Z,428.0000
2023-05-21T08:47:09.805Z,427.0000
2023-05-21T08:48:11.978Z,432.0000
2023-05-21T08:49:14.157Z,431.0000
2023-05-21T08:50:16.338Z,430.0000
2023-05-21T08:51:18.511Z,428.0000
2023-05-21T08:52:20.697Z,430.0000
2023-05-21T08:53:28.252Z,428.0000
2023-05-21T08:54:25.003Z,428.0000
2023-05-21T08:55:27.135Z,428.0000
2023-05-21T08:56:29.304Z,428.0000
2023-05-21T08:57:31.480Z,427.0000
2023-05-21T08:58:33.723Z,423.0000
2023-05-21T08:59:35.857Z,422.0000
2023-05-21T09:00:37.989Z,425.0000
2023-05-21T09:01:40.191Z,426.0000
2023-05-21T09:02:42.421Z,421.0000
2023-05-21T09:03:44.594Z,419.0000
2023-05-21T09:04:46.726Z,417.0000
2023-05-21T09:05:48.838Z,417.0000
2023-05-21T09:06:48.822Z,415.0000
2023-05-21T09:07:52.497Z,417.0000
2023-05-21T09:08:53.176Z,416.0000
2023-05-21T09:09:55.349Z,407.0000
2023-05-21T09:10:57.497Z,412.0000
2023-05-21T09:11:59.681Z,417.0000
2023-05-21T09:13:01.849Z,418.0000
2023-05-21T09:14:04.068Z,418.0000
2023-05-21T09:15:06.211Z,422.0000
2023-05-21T09:16:08.403Z,420.0000
2023-05-21T09:17:10.575Z,425.0000
2023-05-21T09:18:12.832Z,427.0000
2023-05-21T09:19:15.081Z,431.0000
2023-05-21T09:20:17.174Z,431.0000
2023-05-21T09:21:19.367Z,430.0000
2023-05-21T09:22:21.561Z,430.0000
2023-05-21T09:23:23.771Z,434.0000
2023-05-21T09:24:25.935Z,439.0000
2023-05-21T09:25:28.274Z,443.0000
2023-05-21T09:26:30.303Z,448.0000
2023-05-21T09:27:32.493Z,450.0000
2023-05-21T09:28:34.686Z,454.0000
2023-05-21T09:29:36.897Z,458.0000
2023-05-21T09:30:37.111Z,460.0000
2023-05-21T09:31:39.251Z,463.0000
2023-05-21T09:32:41.568Z,466.0000
2023-05-21T09:33:43.654Z,467.0000
2023-05-21T09:34:45.909Z,472.0000
2023-05-21T09:35:48.077Z,475.0000
2023-05-21T09:36:50.302Z,475.0000
2023-05-21T09:37:52.507Z,472.0000
2023-05-21T09:38:54.706Z,474.0000
2023-05-21T09:39:56.953Z,473.0000
2023-05-21T09:40:59.211Z,474.0000
2023-05-21T09:42:01.442Z,474.0000
2023-05-21T09:43:03.648Z,474.0000
2023-05-21T09:44:03.736Z,480.0000
2023-05-21T09:45:06.015Z,476.0000
2023-05-21T09:46:08.242Z,477.0000
2023-05-21T09:47:10.445Z,479.0000
2023-05-21T09:48:12.649Z,482.0000
2023-05-21T09:49:14.838Z,483.0000
2023-05-21T09:51:46.074Z,478.0000
2023-05-21T09:53:47.104Z,481.0000
2023-05-21T09:54:49.312Z,483.0000
2023-05-21T09:55:51.477Z,480.0000
2023-05-21T09:56:53.744Z,479.0000
2023-05-21T09:57:55.853Z,481.0000
2023-05-21T09:58:58.050Z,483.0000
2023-05-21T10:00:00.348Z,483.0000
2023-05-21T10:01:02.457Z,483.0000
2023-05-21T10:02:04.730Z,482.0000
2023-05-21T10:03:06.942Z,481.0000
2023-05-21T10:04:09.103Z,483.0000
2023-05-21T10:05:11.216Z,487.0000
2023-05-21T10:06:13.397Z,482.0000
2023-05-21T10:07:15.650Z,482.0000
2023-05-21T10:08:17.748Z,479.0000
2023-05-21T10:09:19.973Z,477.0000
2023-05-21T10:10:22.137Z,475.0000
2023-05-21T10:11:24.333Z,476.0000
2023-05-21T10:12:26.578Z,477.0000
2023-05-21T10:13:28.719Z,478.0000
2023-05-21T10:13:52.308Z,481.0000
2023-05-21T10:15:52.427Z,480.0000
2023-05-21T10:16:54.561Z,481.0000
2023-05-21T10:17:56.738Z,479.0000
2023-05-21T10:18:58.915Z,479.0000
2023-05-21T10:20:01.088Z,479.0000
2023-05-21T10:21:03.285Z,477.0000
2023-05-21T10:22:05.498Z,477.0000
2023-05-21T10:23:08.201Z,475.0000
2023-05-21T10:24:09.959Z,479.0000
2023-05-21T10:25:12.168Z,476.0000
2023-05-21T10:26:14.371Z,476.0000
2023-05-21T10:27:16.573Z,474.0000
2023-05-21T10:28:18.882Z,476.0000
2023-05-21T10:29:19.838Z,475.0000
2023-05-21T10:30:21.145Z,475.0000
2023-05-21T10:31:23.402Z,472.0000
2023-05-21T10:32:25.760Z,473.0000
2023-05-21T10:33:27.927Z,471.0000
2023-05-21T10:34:30.083Z,471.0000
2023-05-21T10:35:32.310Z,469.0000
2023-05-21T10:36:34.538Z,466.0000
2023-05-21T10:37:36.760Z,465.0000
2023-05-21T10:38:39.038Z,460.0000
2023-05-21T10:39:41.209Z,462.0000
2023-05-21T10:40:43.443Z,462.0000
2023-05-21T10:41:43.488Z,463.0000
2023-05-21T10:42:45.683Z,462.0000
2023-05-21T10:43:48.163Z,464.0000
2023-05-21T10:44:49.977Z,465.0000
2023-05-21T10:45:52.218Z,462.0000
2023-05-21T10:46:54.371Z,464.0000
2023-05-21T10:47:56.565Z,463.0000
2023-05-21T10:48:58.830Z,464.0000
2023-05-21T10:50:00.942Z,465.0000
2023-05-21T10:51:03.108Z,467.0000
2023-05-21T10:52:05.250Z,467.0000
2023-05-21T10:53:10.912Z,464.0000
2023-05-21T10:54:09.536Z,465.0000
2023-05-21T10:55:11.672Z,461.0000
2023-05-21T10:56:13.822Z,460.0000
2023-05-21T10:57:15.990Z,459.0000
2023-05-21T10:58:18.136Z,461.0000
2023-05-21T10:59:20.375Z,456.0000
2023-05-21T11:00:22.470Z,461.0000
2023-05-21T11:01:24.701Z,465.0000
2023-05-21T11:02:26.929Z,467.0000
2023-05-21T11:03:29.242Z,464.0000
2023-05-21T11:04:31.342Z,463.0000
2023-05-21T11:05:33.540Z,464.0000
2023-05-21T11:06:35.736Z,462.0000
2023-05-21T11:07:35.809Z,463.0000
2023-05-21T11:08:38.025Z,460.0000
2023-05-21T11:09:40.272Z,458.0000
2023-05-21T11:10:42.451Z,459.0000
2023-05-21T11:11:44.651Z,460.0000
2023-05-21T11:12:46.899Z,463.0000
2023-05-21T11:13:49.150Z,463.0000
2023-05-21T11:14:51.243Z,464.0000
2023-05-21T11:15:53.350Z,464.0000
2023-05-21T11:16:55.592Z,463.0000
2023-05-21T11:17:57.652Z,465.0000
2023-05-21T11:18:59.893Z,465.0000
2023-05-21T11:20:04.004Z,466.0000
2023-05-21T11:21:03.985Z,465.0000
2023-05-21T11:22:08.244Z,465.0000
2023-05-21T11:23:08.310Z,465.0000
2023-05-21T11:24:10.522Z,464.0000
2023-05-21T11:25:10.622Z,466.0000
2023-05-21T11:26:12.795Z,464.0000
2023-05-21T11:27:15.017Z,464.0000
2023-05-21T11:28:17.234Z,462.0000
2023-05-21T11:29:19.412Z,461.0000
2023-05-21T11:30:21.652Z,458.0000
2023-05-21T11:31:23.873Z,462.0000
2023-05-21T11:32:04.547Z,461.0000
2023-05-21T11:33:06.766Z,458.0000
2023-05-21T11:34:08.933Z,456.0000
2023-05-21T11:35:11.160Z,455.0000
2023-05-21T11:36:13.390Z,454.0000
2023-05-21T11:37:15.555Z,453.0000
2023-05-21T11:38:17.712Z,455.0000
2023-05-21T11:39:19.901Z,453.0000
2023-05-21T11:40:22.078Z,452.0000
2023-05-21T11:41:24.287Z,449.0000
2023-05-21T11:42:26.457Z,448.0000
2023-05-21T11:43:26.527Z,446.0000
2023-05-21T11:44:28.738Z,448.0000
2023-05-21T11:45:31.022Z,450.0000
2023-05-21T11:46:33.221Z,451.0000
2023-05-21T11:47:35.532Z,451.0000
2023-05-21T11:48:37.629Z,451.0000
2023-05-21T11:49:39.787Z,454.0000
2023-05-21T11:50:41.931Z,453.0000
2023-05-21T11:51:44.160Z,454.0000
2023-05-21T11:52:46.336Z,451.0000
2023-05-21T11:53:48.517Z,453.0000
2023-05-21T11:54:50.945Z,450.0000
2023-05-21T11:55:52.966Z,449.0000
2023-05-21T11:56:55.198Z,447.0000
2023-05-21T11:57:57.366Z,452.0000
2023-05-21T11:58:59.582Z,454.0000
2023-05-21T12:00:01.885Z,451.0000
2023-05-21T12:01:01.971Z,454.0000
2023-05-21T12:02:04.136Z,453.0000
2023-05-21T12:03:06.446Z,453.0000
2023-05-21T12:04:08.596Z,454.0000
2023-05-21T12:05:12.563Z,454.0000
2023-05-21T12:06:12.965Z,453.0000
2023-05-21T12:07:15.249Z,451.0000
2023-05-21T12:08:17.388Z,451.0000
2023-05-21T12:09:19.602Z,449.0000
2023-05-21T12:10:21.817Z,449.0000
2023-05-21T12:11:24.002Z,449.0000
2023-05-21T12:12:26.330Z,448.0000
2023-05-21T12:13:28.461Z,449.0000
2023-05-21T12:14:30.683Z,446.0000
2023-05-21T12:15:32.755Z,448.0000
2023-05-21T12:16:35.093Z,450.0000
2023-05-21T12:17:37.140Z,452.0000